createdAt,value
2023-02-02T00:00:11.521Z,94690.97
2023-02-02T00:02:13.086Z,94699.47
2023-02-02T00:04:17.850Z,94691.84
2023-02-02T00:06:23.062Z,94691.91
2023-02-02T00:08:24.661Z,94692.88
2023-02-02T00:10:26.096Z,94684.50
2023-02-02T00:12:28.093Z,94687.03
2023-02-02T00:14:29.677Z,94681.50
2023-02-02T00:16:31.174Z,94681.56
2023-02-02T00:18:32.721Z,94686.88
2023-02-02T00:20:36.933Z,94684.28
2023-02-02T00:22:38.467Z,94685.94
2023-02-02T00:24:39.988Z,94682.00
2023-02-02T00:26:41.958Z,94690.50
2023-02-02T00:28:43.463Z,94694.50
2023-02-02T00:30:45.711Z,94686.53
2023-02-02T00:32:48.596Z,94701.13
2023-02-02T00:34:50.074Z,94688.59
2023-02-02T00:36:51.585Z,94701.91
2023-02-02T00:38:53.628Z,94703.56
2023-02-02T00:40:55.079Z,94702.97
2023-02-02T00:42:56.526Z,94706.00
2023-02-02T00:45:16.316Z,94704.22
2023-02-02T00:47:18.037Z,94709.69
2023-02-02T00:49:19.546Z,94704.34
2023-02-02T00:51:21.029Z,94704.81
2023-02-02T00:53:22.480Z,94707.16
2023-02-02T00:55:24.250Z,94701.72
2023-02-02T00:57:25.903Z,94710.91
2023-02-02T00:59:27.412Z,94704.50
2023-02-02T01:01:29.106Z,94690.66
2023-02-02T01:03:30.599Z,94692.75
2023-02-02T01:05:32.191Z,94691.25
2023-02-02T01:07:33.711Z,94684.16
2023-02-02T01:09:35.194Z,94684.88
2023-02-02T01:11:37.044Z,94685.91
2023-02-02T01:13:38.665Z,94673.50
2023-02-02T01:15:40.276Z,94674.66
2023-02-02T01:17:41.696Z,94665.59
2023-02-02T01:19:43.218Z,94662.81
2023-02-02T01:21:44.706Z,94658.19
2023-02-02T01:23:46.188Z,94664.22
2023-02-02T01:25:52.946Z,94664.22
2023-02-02T01:27:54.446Z,94670.25
2023-02-02T01:29:55.935Z,94670.38
2023-02-02T01:31:57.492Z,94659.75
2023-02-02T01:33:59.007Z,94661.53
2023-02-02T01:36:02.825Z,94658.84
2023-02-02T01:38:04.284Z,94664.72
2023-02-02T01:40:06.174Z,94665.41
2023-02-02T01:42:14.951Z,94660.94
2023-02-02T01:44:35.027Z,94654.56
2023-02-02T01:46:36.976Z,94659.03
2023-02-02T01:48:38.436Z,94656.81
2023-02-02T01:50:39.926Z,94651.75
2023-02-02T01:52:41.427Z,94651.63
2023-02-02T01:54:44.675Z,94650.38
2023-02-02T01:56:47.437Z,94647.69
2023-02-02T01:58:48.958Z,94642.16
2023-02-02T02:00:50.417Z,94644.75
2023-02-02T02:02:52.374Z,94634.84
2023-02-02T02:04:54.248Z,94638.41
2023-02-02T02:06:55.798Z,94637.00
2023-02-02T02:09:01.256Z,94638.88
2023-02-02T02:11:02.813Z,94645.25
2023-02-02T02:13:04.480Z,94646.28
2023-02-02T02:15:25.278Z,94653.25
2023-02-02T02:17:29.954Z,94641.81
2023-02-02T02:20:05.250Z,94644.16
2023-02-02T02:22:35.195Z,94628.03
2023-02-02T02:24:55.511Z,94639.34
2023-02-02T02:27:15.676Z,94644.28
2023-02-02T02:29:35.993Z,94645.63
2023-02-02T02:31:43.602Z,94651.72
2023-02-02T02:33:50.976Z,94640.28
2023-02-02T02:35:56.100Z,94645.13
2023-02-02T02:37:57.537Z,94639.59
2023-02-02T02:40:17.253Z,94644.53
2023-02-02T02:42:23.003Z,94645.13
2023-02-02T02:44:24.459Z,94647.94
2023-02-02T02:46:25.939Z,94649.72
2023-02-02T02:48:28.746Z,94644.88
2023-02-02T02:50:30.206Z,94637.34
2023-02-02T02:52:32.158Z,94639.59
2023-02-02T02:54:34.484Z,94634.50
2023-02-02T02:56:40.369Z,94646.31
2023-02-02T02:58:41.817Z,94641.25
2023-02-02T03:01:12.708Z,94640.66
2023-02-02T03:03:16.577Z,94631.59
2023-02-02T03:05:27.137Z,94640.06
2023-02-02T03:07:49.055Z,94636.41
2023-02-02T03:09:50.512Z,94634.50
2023-02-02T03:11:51.967Z,94635.91
2023-02-02T03:13:53.445Z,94644.78
2023-02-02T03:15:55.128Z,94636.75
2023-02-02T03:17:56.676Z,94640.09
2023-02-02T03:19:58.099Z,94636.69
2023-02-02T03:21:59.576Z,94636.22
2023-02-02T03:24:01.230Z,94627.72
2023-02-02T03:26:02.762Z,94632.19
2023-02-02T03:28:04.714Z,94635.34
2023-02-02T03:30:07.045Z,94628.44
2023-02-02T03:32:08.558Z,94623.50
2023-02-02T03:34:10.010Z,94632.66
2023-02-02T03:36:11.504Z,94624.69
2023-02-02T03:38:13.068Z,94625.38
2023-02-02T03:40:14.598Z,94630.31
2023-02-02T03:42:16.088Z,94632.91
2023-02-02T03:44:17.629Z,94632.44
2023-02-02T03:46:19.101Z,94620.44
2023-02-02T03:48:20.566Z,94636.91
2023-02-02T03:50:22.053Z,94620.88
2023-02-02T03:52:23.705Z,94628.31
2023-02-02T03:54:25.187Z,94619.72
2023-02-02T03:56:26.631Z,94634.78
2023-02-02T03:58:28.099Z,94634.31
2023-02-02T04:00:29.623Z,94633.38
2023-02-02T04:02:31.203Z,94636.19
2023-02-02T04:04:32.872Z,94632.09
2023-02-02T04:06:34.311Z,94639.72
2023-02-02T04:08:36.158Z,94645.28
2023-02-02T04:10:39.721Z,94646.81
2023-02-02T04:12:41.167Z,94649.28
2023-02-02T04:14:42.604Z,94644.44
2023-02-02T04:16:44.050Z,94652.00
2023-02-02T04:18:45.602Z,94650.78
2023-02-02T04:20:47.082Z,94658.53
2023-02-02T04:22:48.611Z,94659.19
2023-02-02T04:24:50.133Z,94675.22
2023-02-02T04:26:51.611Z,94659.38
2023-02-02T04:28:53.539Z,94663.56
2023-02-02T04:30:55.436Z,94665.91
2023-02-02T04:32:56.945Z,94656.59
2023-02-02T04:34:58.427Z,94643.56
2023-02-02T04:36:59.903Z,94636.22
2023-02-02T04:39:01.470Z,94633.16
2023-02-02T04:41:06.819Z,94641.88
2023-02-02T04:43:08.326Z,94647.97
2023-02-02T04:45:10.141Z,94648.00
2023-02-02T04:47:11.700Z,94650.78
2023-02-02T04:49:13.126Z,94650.44
2023-02-02T04:51:15.318Z,94654.78
2023-02-02T04:53:16.823Z,94658.09
2023-02-02T04:55:18.388Z,94651.16
2023-02-02T04:57:19.922Z,94654.09
2023-02-02T04:59:21.459Z,94656.47
2023-02-02T05:01:23.028Z,94662.47
2023-02-02T05:03:24.597Z,94658.94
2023-02-02T05:05:26.286Z,94664.13
2023-02-02T05:07:28.011Z,94659.50
2023-02-02T05:09:29.511Z,94656.78
2023-02-02T05:11:31.065Z,94665.16
2023-02-02T05:13:32.584Z,94655.63
2023-02-02T05:15:34.164Z,94657.88
2023-02-02T05:17:35.623Z,94666.81
2023-02-02T05:19:37.058Z,94653.16
2023-02-02T05:21:38.655Z,94658.94
2023-02-02T05:23:40.161Z,94650.19
2023-02-02T05:25:41.944Z,94640.44
2023-02-02T05:27:44.673Z,94639.94
2023-02-02T05:29:46.940Z,94639.25
2023-02-02T05:31:48.502Z,94654.78
2023-02-02T05:33:50.011Z,94645.59
2023-02-02T05:35:51.909Z,94647.41
2023-02-02T05:37:53.404Z,94651.41
2023-02-02T05:39:54.885Z,94656.59
2023-02-02T05:41:56.312Z,94660.47
2023-02-02T05:44:00.898Z,94659.06
2023-02-02T05:46:02.557Z,94665.63
2023-02-02T05:48:04.271Z,94667.03
2023-02-02T05:50:06.461Z,94658.22
2023-02-02T05:52:08.281Z,94661.16
2023-02-02T05:54:09.752Z,94655.50
2023-02-02T05:56:11.644Z,94665.63
2023-02-02T05:58:13.120Z,94657.59
2023-02-02T06:00:14.822Z,94683.16
2023-02-02T06:02:16.349Z,94655.25
2023-02-02T06:04:17.910Z,94664.44
2023-02-02T06:06:19.362Z,94667.88
2023-02-02T06:08:20.832Z,94658.34
2023-02-02T06:10:22.340Z,94672.94
2023-02-02T06:12:23.792Z,94662.72
2023-02-02T06:14:25.326Z,94659.97
2023-02-02T06:16:26.834Z,94677.50
2023-02-02T06:18:28.336Z,94682.59
2023-02-02T06:20:29.942Z,94673.97
2023-02-02T06:22:32.411Z,94672.41
2023-02-02T06:24:33.929Z,94683.13
2023-02-02T06:26:35.489Z,94693.84
2023-02-02T06:28:36.990Z,94699.75
2023-02-02T06:30:38.643Z,94692.56
2023-02-02T06:32:40.270Z,94691.72
2023-02-02T06:34:41.752Z,94700.91
2023-02-02T06:36:43.287Z,94695.13
2023-02-02T06:38:48.728Z,94708.22
2023-02-02T06:40:50.196Z,94706.44
2023-02-02T06:42:57.949Z,94708.91
2023-02-02T06:44:59.502Z,94710.81
2023-02-02T06:47:01.001Z,94713.50
2023-02-02T06:49:02.497Z,94702.31
2023-02-02T06:51:05.609Z,94701.63
2023-02-02T06:53:07.068Z,94698.88
2023-02-02T06:55:08.760Z,94706.75
2023-02-02T06:57:10.235Z,94709.94
2023-02-02T06:59:11.682Z,94721.28
2023-02-02T07:01:13.697Z,94710.31
2023-02-02T07:03:15.596Z,94721.41
2023-02-02T07:05:19.552Z,94714.53
2023-02-02T07:07:21.097Z,94721.13
2023-02-02T07:09:22.571Z,94711.56
2023-02-02T07:11:24.024Z,94712.97
2023-02-02T07:13:25.878Z,94704.34
2023-02-02T07:15:27.420Z,94709.47
2023-02-02T07:17:29.021Z,94717.38
2023-02-02T07:19:49.253Z,94709.59
2023-02-02T07:21:50.703Z,94717.25
2023-02-02T07:23:52.214Z,94720.78
2023-02-02T07:26:00.587Z,94720.09
2023-02-02T07:28:02.109Z,94715.97
2023-02-02T07:30:04.161Z,94713.53
2023-02-02T07:32:05.695Z,94708.19
2023-02-02T07:34:07.253Z,94723.06
2023-02-02T07:36:08.833Z,94722.19
2023-02-02T07:38:10.350Z,94726.34
2023-02-02T07:40:11.998Z,94721.53
2023-02-02T07:42:13.462Z,94715.81
2023-02-02T07:44:15.668Z,94713.81
2023-02-02T07:46:17.547Z,94710.56
2023-02-02T07:48:19.100Z,94706.06
2023-02-02T07:50:20.654Z,94695.75
2023-02-02T07:52:22.119Z,94703.03
2023-02-02T07:54:23.710Z,94687.75
2023-02-02T07:56:26.698Z,94677.25
2023-02-02T07:58:28.196Z,94683.47
2023-02-02T08:00:29.776Z,94686.75
2023-02-02T08:02:31.384Z,94687.44
2023-02-02T08:04:34.381Z,94687.66
2023-02-02T08:06:36.786Z,94695.19
2023-02-02T08:08:38.339Z,94684.59
2023-02-02T08:10:39.779Z,94686.91
2023-02-02T08:12:41.249Z,94682.16
2023-02-02T08:14:42.691Z,94691.50
2023-02-02T08:16:44.154Z,94679.72
2023-02-02T08:18:45.660Z,94675.06
2023-02-02T08:20:47.146Z,94678.22
2023-02-02T08:22:48.623Z,94671.63
2023-02-02T08:24:50.184Z,94668.06
2023-02-02T08:26:51.651Z,94675.56
2023-02-02T08:28:54.373Z,94669.97
2023-02-02T08:30:55.833Z,94668.31
2023-02-02T08:32:57.413Z,94673.78
2023-02-02T08:34:58.950Z,94673.13
2023-02-02T08:37:00.358Z,94664.09
2023-02-02T08:39:03.267Z,94665.34
2023-02-02T08:41:05.961Z,94662.63
2023-02-02T08:43:07.433Z,94660.31
2023-02-02T08:46:13.689Z,94672.22
2023-02-02T08:47:33.858Z,94659.75
2023-02-02T08:49:35.905Z,94650.31
2023-02-02T08:51:37.498Z,94641.81
2023-02-02T08:53:39.005Z,94640.28
2023-02-02T08:55:40.510Z,94645.19
2023-02-02T08:57:44.393Z,94643.28
2023-02-02T08:59:46.088Z,94647.69
2023-02-02T09:01:47.597Z,94642.75
2023-02-02T09:03:49.272Z,94650.69
2023-02-02T09:05:50.701Z,94640.56
2023-02-02T09:07:52.170Z,94636.97
2023-02-02T09:09:55.807Z,94642.84
2023-02-02T09:11:57.269Z,94634.75
2023-02-02T09:13:59.275Z,94630.88
2023-02-02T09:16:01.512Z,94651.34
2023-02-02T09:18:03.026Z,94634.72
2023-02-02T09:20:04.871Z,94618.03
2023-02-02T09:22:06.450Z,94634.13
2023-02-02T09:24:08.630Z,94624.03
2023-02-02T09:26:10.529Z,94628.56
2023-02-02T09:28:12.001Z,94635.41
2023-02-02T09:30:13.681Z,94633.78
2023-02-02T09:32:15.204Z,94633.00
2023-02-02T09:34:16.694Z,94620.41
2023-02-02T09:36:20.309Z,94624.59
2023-02-02T09:38:21.940Z,94628.03
2023-02-02T09:40:27.839Z,94616.69
2023-02-02T09:42:33.000Z,94631.22
2023-02-02T09:44:37.511Z,94608.44
2023-02-02T09:46:39.089Z,94608.09
2023-02-02T09:48:43.490Z,94597.13
2023-02-02T09:50:50.036Z,94596.53
2023-02-02T09:53:17.502Z,94604.66
2023-02-02T09:55:26.570Z,94598.22
2023-02-02T09:57:38.361Z,94600.53
2023-02-02T09:59:40.228Z,94598.91
2023-02-02T10:01:45.231Z,94604.06
2023-02-02T10:03:59.470Z,94594.59
2023-02-02T10:06:16.054Z,94589.97
2023-02-02T10:08:33.848Z,94588.91
2023-02-02T10:10:39.107Z,94581.59
2023-02-02T10:12:48.930Z,94594.16
2023-02-02T10:15:01.898Z,94586.50
2023-02-02T10:17:09.267Z,94573.41
2023-02-02T10:19:11.590Z,94581.75
2023-02-02T10:21:14.198Z,94576.00
2023-02-02T10:23:15.716Z,94583.25
2023-02-02T10:25:17.713Z,94569.28
2023-02-02T10:27:22.982Z,94575.50
2023-02-02T10:29:24.483Z,94559.81
2023-02-02T10:31:29.614Z,94568.75
2023-02-02T10:33:40.438Z,94558.91
2023-02-02T10:35:41.882Z,94555.28
2023-02-02T10:38:03.709Z,94556.75
2023-02-02T10:40:11.868Z,94550.00
2023-02-02T10:42:14.083Z,94542.16
2023-02-02T10:44:22.536Z,94542.16
2023-02-02T10:46:24.376Z,94526.06
2023-02-02T10:48:32.826Z,94519.50
2023-02-02T10:50:34.307Z,94506.59
2023-02-02T10:52:37.081Z,94504.16
2023-02-02T10:54:57.274Z,94505.72
2023-02-02T10:56:59.814Z,94485.69
2023-02-02T10:59:01.357Z,94490.34
2023-02-02T11:01:05.148Z,94485.94
2023-02-02T11:03:08.278Z,94495.38
2023-02-02T11:05:32.060Z,94494.84
2023-02-02T11:07:33.566Z,94494.91
2023-02-02T11:09:40.052Z,94473.97
2023-02-02T11:11:45.557Z,94475.88
2023-02-02T11:13:55.330Z,94484.56
2023-02-02T11:16:41.317Z,94481.50
2023-02-02T11:18:44.439Z,94473.25
2023-02-02T11:20:46.704Z,94472.19
2023-02-02T11:22:48.300Z,94473.34
2023-02-02T11:24:50.033Z,94499.44
2023-02-02T11:27:01.373Z,94481.94
2023-02-02T11:29:02.870Z,94475.38
2023-02-02T11:31:04.494Z,94467.88
2023-02-02T11:33:19.885Z,94458.91
2023-02-02T11:35:25.549Z,94459.06
2023-02-02T11:37:27.119Z,94450.09
2023-02-02T11:39:28.724Z,94453.75
2023-02-02T11:41:31.078Z,94445.81
2023-02-02T11:43:36.441Z,94458.41
2023-02-02T11:45:40.701Z,94443.47
2023-02-02T11:47:42.159Z,94444.91
2023-02-02T11:49:44.034Z,94437.75
2023-02-02T11:52:06.740Z,94441.69
2023-02-02T11:54:18.520Z,94444.00
2023-02-02T11:56:20.980Z,94441.63
2023-02-02T11:58:27.765Z,94451.31
2023-02-02T12:00:29.881Z,94439.88
2023-02-02T12:02:31.999Z,94428.91
2023-02-02T12:04:33.529Z,94438.28
2023-02-02T12:06:36.060Z,94433.16
2023-02-02T12:08:37.746Z,94427.88
2023-02-02T12:10:42.763Z,94436.50
2023-02-02T12:12:50.412Z,94446.78
2023-02-02T12:14:57.512Z,94437.31
2023-02-02T12:16:58.934Z,94441.88
2023-02-02T12:19:00.369Z,94441.78
2023-02-02T12:21:05.839Z,94449.72
2023-02-02T12:23:07.323Z,94423.69
2023-02-02T12:25:09.421Z,94429.84
2023-02-02T12:27:23.182Z,94424.69
2023-02-02T12:29:34.847Z,94427.47
2023-02-02T12:31:55.943Z,94444.91
2023-02-02T12:34:06.639Z,94449.69
2023-02-02T12:36:08.089Z,94436.44
2023-02-02T12:38:15.596Z,94457.13
2023-02-02T12:40:30.166Z,94454.28
2023-02-02T12:42:34.750Z,94441.69
2023-02-02T12:44:39.261Z,94437.44
2023-02-02T12:46:43.455Z,94439.56
2023-02-02T12:48:49.289Z,94438.56
2023-02-02T12:50:53.537Z,94448.56
2023-02-02T12:53:13.797Z,94444.53
2023-02-02T12:55:17.517Z,94445.66
2023-02-02T12:57:22.135Z,94428.53
2023-02-02T12:59:26.624Z,94435.91
2023-02-02T13:01:39.003Z,94431.94
2023-02-02T13:03:52.694Z,94437.09
2023-02-02T13:06:12.769Z,94437.09
2023-02-02T13:08:18.091Z,94435.53
2023-02-02T13:10:19.533Z,94433.94
2023-02-02T13:12:22.078Z,94433.00
2023-02-02T13:14:25.193Z,94443.41
2023-02-02T13:16:26.691Z,94442.88
2023-02-02T13:18:32.126Z,94442.09
2023-02-02T13:20:36.442Z,94436.28
2023-02-02T13:22:39.533Z,94431.56
2023-02-02T13:24:41.412Z,94427.81
2023-02-02T13:26:43.232Z,94424.47
2023-02-02T13:28:50.357Z,94425.66
2023-02-02T13:30:51.957Z,94432.59
2023-02-02T13:32:53.711Z,94432.75
2023-02-02T13:34:55.202Z,94435.91
2023-02-02T13:36:57.471Z,94433.03
2023-02-02T13:39:00.363Z,94429.91
2023-02-02T13:41:03.924Z,94442.53
2023-02-02T13:43:11.731Z,94429.72
2023-02-02T13:45:31.891Z,94432.25
2023-02-02T13:47:37.992Z,94430.22
2023-02-02T13:49:43.265Z,94433.28
2023-02-02T13:51:44.684Z,94427.19
2023-02-02T13:53:49.190Z,94430.22
2023-02-02T13:56:13.720Z,94424.03
2023-02-02T13:58:34.156Z,94433.03
2023-02-02T14:00:39.066Z,94425.88
2023-02-02T14:02:44.528Z,94428.25
2023-02-02T14:04:46.030Z,94440.03
2023-02-02T14:07:06.027Z,94433.34
2023-02-02T14:09:08.075Z,94434.84
2023-02-02T14:11:14.730Z,94425.97
2023-02-02T14:13:35.760Z,94420.53
2023-02-02T14:15:40.787Z,94426.06
2023-02-02T14:17:42.329Z,94434.38
2023-02-02T14:19:43.980Z,94419.94
2023-02-02T14:21:48.458Z,94440.19
2023-02-02T14:23:51.361Z,94439.00
2023-02-02T14:26:06.475Z,94444.44
2023-02-02T14:28:12.398Z,94467.22
2023-02-02T14:30:17.588Z,94459.72
2023-02-02T14:32:25.510Z,94474.00
2023-02-02T14:34:30.708Z,94467.38
2023-02-02T14:36:32.175Z,94474.50
2023-02-02T14:38:33.630Z,94464.56
2023-02-02T14:40:50.218Z,94490.84
2023-02-02T14:43:13.389Z,94513.59
2023-02-02T14:45:16.638Z,94556.03
2023-02-02T14:47:37.077Z,94586.25
2023-02-02T14:49:38.631Z,94571.97
2023-02-02T14:51:47.441Z,94558.38
2023-02-02T14:54:02.148Z,94600.75
2023-02-02T14:56:09.099Z,94610.00
2023-02-02T14:58:18.936Z,94623.91
2023-02-02T15:00:22.293Z,94694.84
2023-02-02T15:02:25.341Z,94653.88
2023-02-02T15:04:27.197Z,94660.41
2023-02-02T15:06:28.995Z,94660.81
2023-02-02T15:08:30.580Z,94647.19
2023-02-02T15:10:53.581Z,94658.84
2023-02-02T15:13:03.070Z,94643.22
2023-02-02T15:15:12.917Z,94660.44
2023-02-02T15:17:21.086Z,94673.63
2023-02-02T15:19:28.461Z,94684.63
2023-02-02T15:21:29.909Z,94695.47
2023-02-02T15:23:34.854Z,94703.38
2023-02-02T15:25:55.213Z,94732.34
2023-02-02T15:28:15.515Z,94710.84
2023-02-02T15:30:17.891Z,94697.34
2023-02-02T15:32:20.589Z,94697.28
2023-02-02T15:34:37.747Z,94702.28
2023-02-02T15:36:39.712Z,94708.63
2023-02-02T15:38:41.243Z,94710.47
2023-02-02T15:40:42.762Z,94711.28
2023-02-02T15:42:54.156Z,94712.38
2023-02-02T15:44:55.932Z,94716.78
2023-02-02T15:46:58.370Z,94722.19
2023-02-02T15:49:33.229Z,94720.88
2023-02-02T15:51:35.665Z,94725.19
2023-02-02T15:53:43.290Z,94725.78
2023-02-02T15:55:44.780Z,94719.97
2023-02-02T15:57:46.333Z,94738.66
2023-02-02T15:59:49.449Z,94737.06
2023-02-02T16:01:53.453Z,94739.41
2023-02-02T16:03:56.951Z,94744.50
2023-02-02T16:05:58.539Z,94738.75
2023-02-02T16:08:05.605Z,94729.13
2023-02-02T16:10:07.820Z,94723.72
2023-02-02T16:12:19.366Z,94724.22
2023-02-02T16:14:21.174Z,94741.03
2023-02-02T16:16:27.873Z,94747.63
2023-02-02T16:18:30.324Z,94763.59
2023-02-02T16:20:33.272Z,94769.22
2023-02-02T16:22:35.671Z,94760.75
2023-02-02T16:24:38.459Z,94769.59
2023-02-02T16:26:41.130Z,94766.72
2023-02-02T16:28:44.063Z,94759.09
2023-02-02T16:30:46.637Z,94748.84
2023-02-02T16:32:48.104Z,94738.53
2023-02-02T16:34:50.106Z,94746.56
2023-02-02T16:37:04.644Z,94744.31
2023-02-02T16:39:14.627Z,94759.97
2023-02-02T16:41:32.837Z,94749.41
2023-02-02T16:43:34.866Z,94750.59
2023-02-02T16:45:57.064Z,94741.91
2023-02-02T16:48:00.638Z,94755.06
2023-02-02T16:50:07.846Z,94761.78
2023-02-02T16:52:13.731Z,94762.72
2023-02-02T16:54:19.354Z,94754.72
2023-02-02T16:56:23.871Z,94751.78
2023-02-02T16:58:25.383Z,94777.22
2023-02-02T17:00:28.101Z,94777.69
2023-02-02T17:02:32.343Z,94764.97
2023-02-02T17:04:34.290Z,94763.19
2023-02-02T17:06:51.484Z,94768.97
2023-02-02T17:08:54.084Z,94772.84
2023-02-02T17:11:14.624Z,94779.59
2023-02-02T17:13:31.174Z,94790.97
2023-02-02T17:15:36.579Z,94801.38
2023-02-02T17:17:38.146Z,94800.06
2023-02-02T17:19:39.740Z,94809.28
2023-02-02T17:21:41.298Z,94802.25
2023-02-02T17:23:42.866Z,94800.13
2023-02-02T17:25:44.534Z,94796.34
2023-02-02T17:27:46.032Z,94783.69
2023-02-02T17:29:47.533Z,94777.78
2023-02-02T17:31:49.156Z,94779.22
2023-02-02T17:33:50.782Z,94774.66
2023-02-02T17:35:55.657Z,94774.31
2023-02-02T17:37:57.844Z,94787.88
2023-02-02T17:39:59.359Z,94788.34
2023-02-02T17:42:00.904Z,94793.06
2023-02-02T17:44:04.810Z,94801.41
2023-02-02T17:46:06.312Z,94803.03
2023-02-02T17:48:09.425Z,94815.97
2023-02-02T17:50:11.080Z,94800.59
2023-02-02T17:52:12.883Z,94799.44
2023-02-02T17:54:14.902Z,94793.28
2023-02-02T17:56:16.367Z,94788.09
2023-02-02T17:58:18.139Z,94798.00
2023-02-02T18:00:21.208Z,94781.44
2023-02-02T18:02:22.672Z,94792.75
2023-02-02T18:04:25.008Z,94804.72
2023-02-02T18:06:26.627Z,94798.50
2023-02-02T18:08:28.494Z,94794.75
2023-02-02T18:10:30.362Z,94795.47
2023-02-02T18:12:35.120Z,94809.38
2023-02-02T18:14:37.774Z,94794.31
2023-02-02T18:16:39.257Z,94799.28
2023-02-02T18:18:40.776Z,94793.06
2023-02-02T18:20:45.966Z,94792.47
2023-02-02T18:22:48.714Z,94800.38
2023-02-02T18:24:50.315Z,94797.19
2023-02-02T18:26:51.865Z,94798.00
2023-02-02T18:28:53.525Z,94806.00
2023-02-02T18:30:55.730Z,94812.38
2023-02-02T18:32:57.306Z,94816.94
2023-02-02T18:34:58.869Z,94813.19
2023-02-02T18:37:00.510Z,94819.47
2023-02-02T18:39:01.942Z,94811.44
2023-02-02T18:41:04.072Z,94806.84
2023-02-02T18:43:05.680Z,94811.56
2023-02-02T18:45:07.429Z,94808.63
2023-02-02T18:47:08.899Z,94799.69
2023-02-02T18:49:10.893Z,94807.72
2023-02-02T18:51:16.081Z,94811.03
2023-02-02T18:53:18.081Z,94808.25
2023-02-02T18:55:19.617Z,94813.56
2023-02-02T18:57:22.063Z,94807.22
2023-02-02T18:59:23.513Z,94822.19
2023-02-02T19:01:26.193Z,94818.50
2023-02-02T19:03:27.738Z,94814.13
2023-02-02T19:05:47.698Z,94817.22
2023-02-02T19:07:54.972Z,94808.91
2023-02-02T19:09:56.404Z,94812.41
2023-02-02T19:11:57.835Z,94813.91
2023-02-02T19:13:59.318Z,94816.22
2023-02-02T19:16:01.054Z,94821.88
2023-02-02T19:18:02.493Z,94821.25
2023-02-02T19:20:09.404Z,94818.19
2023-02-02T19:22:17.845Z,94818.28
2023-02-02T19:24:19.316Z,94828.53
2023-02-02T19:26:22.428Z,94825.09
2023-02-02T19:28:25.422Z,94842.16
2023-02-02T19:30:27.368Z,94824.66
2023-02-02T19:32:31.433Z,94843.16
2023-02-02T19:34:33.057Z,94839.53
2023-02-02T19:36:34.497Z,94838.31
2023-02-02T19:38:36.174Z,94834.56
2023-02-02T19:40:37.639Z,94836.13
2023-02-02T19:42:40.803Z,94839.31
2023-02-02T19:44:42.414Z,94842.72
2023-02-02T19:46:44.736Z,94836.94
2023-02-02T19:48:46.309Z,94833.75
2023-02-02T19:50:47.837Z,94838.66
2023-02-02T19:52:49.729Z,94840.63
2023-02-02T19:54:51.227Z,94836.16
2023-02-02T19:56:56.550Z,94840.44
2023-02-02T19:58:58.821Z,94840.00
2023-02-02T20:01:00.324Z,94836.63
2023-02-02T20:03:11.555Z,94844.16
2023-02-02T20:05:20.591Z,94849.22
2023-02-02T20:07:22.104Z,94845.94
2023-02-02T20:09:24.336Z,94858.31
2023-02-02T20:11:42.300Z,94841.34
2023-02-02T20:13:44.334Z,94842.38
2023-02-02T20:15:45.983Z,94846.19
2023-02-02T20:17:47.476Z,94843.88
2023-02-02T20:19:49.244Z,94838.38
2023-02-02T20:21:51.552Z,94835.56
2023-02-02T20:23:53.004Z,94833.97
2023-02-02T20:25:54.501Z,94841.38
2023-02-02T20:27:59.015Z,94836.81
2023-02-02T20:30:04.684Z,94838.81
2023-02-02T20:32:07.735Z,94839.38
2023-02-02T20:34:21.819Z,94836.41
2023-02-02T20:36:23.292Z,94836.06
2023-02-02T20:38:26.037Z,94835.00
2023-02-02T20:40:29.162Z,94838.56
2023-02-02T20:42:30.704Z,94831.81
2023-02-02T20:44:33.015Z,94841.06
2023-02-02T20:46:34.519Z,94831.28
2023-02-02T20:48:35.959Z,94831.31
2023-02-02T20:50:37.402Z,94828.53
2023-02-02T20:52:39.073Z,94825.13
2023-02-02T20:54:40.688Z,94826.50
2023-02-02T20:56:42.238Z,94830.72
2023-02-02T20:58:43.792Z,94841.06
2023-02-02T21:00:45.265Z,94833.72
2023-02-02T21:02:48.577Z,94828.44
2023-02-02T21:04:50.487Z,94837.75
2023-02-02T21:06:52.094Z,94836.50
2023-02-02T21:08:53.628Z,94829.69
2023-02-02T21:10:55.104Z,94817.38
2023-02-02T21:12:56.813Z,94811.88
2023-02-02T21:14:58.269Z,94822.44
2023-02-02T21:17:14.072Z,94822.03
2023-02-02T21:19:16.589Z,94818.50
2023-02-02T21:21:19.001Z,94818.19
2023-02-02T21:23:21.796Z,94817.34
2023-02-02T21:25:23.357Z,94814.78
2023-02-02T21:27:24.864Z,94818.91
2023-02-02T21:29:26.432Z,94808.69
2023-02-02T21:31:28.034Z,94820.75
2023-02-02T21:33:29.597Z,94815.25
2023-02-02T21:35:31.184Z,94814.50
2023-02-02T21:37:34.554Z,94817.38
2023-02-02T21:39:36.451Z,94819.84
2023-02-02T21:41:38.067Z,94818.38
2023-02-02T21:43:39.654Z,94824.03
2023-02-02T21:45:41.415Z,94823.50
2023-02-02T21:47:54.165Z,94829.78
2023-02-02T21:49:56.587Z,94824.91
2023-02-02T21:51:59.318Z,94820.63
2023-02-02T21:54:24.041Z,94830.78
2023-02-02T21:56:29.287Z,94830.31
2023-02-02T21:58:34.351Z,94828.38
2023-02-02T22:00:35.936Z,94832.06
2023-02-02T22:02:38.757Z,94829.22
2023-02-02T22:04:40.372Z,94836.78
2023-02-02T22:06:43.913Z,94849.16
2023-02-02T22:08:45.508Z,94838.50
2023-02-02T22:10:47.359Z,94836.03
2023-02-02T22:12:48.806Z,94835.72
2023-02-02T22:14:51.471Z,94826.34
2023-02-02T22:16:53.887Z,94828.06
2023-02-02T22:18:55.434Z,94832.81
2023-02-02T22:20:57.033Z,94841.69
2023-02-02T22:22:58.586Z,94843.50
2023-02-02T22:25:04.777Z,94839.53
2023-02-02T22:27:33.169Z,94852.38
2023-02-02T22:29:34.750Z,94853.03
2023-02-02T22:31:36.398Z,94856.59
2023-02-02T22:33:38.082Z,94856.53
2023-02-02T22:35:39.898Z,94846.84
2023-02-02T22:37:41.460Z,94841.34
2023-02-02T22:39:42.965Z,94850.91
2023-02-02T22:41:45.154Z,94850.91
2023-02-02T22:43:46.578Z,94846.16
2023-02-02T22:45:48.359Z,94842.44
2023-02-02T22:47:49.815Z,94843.38
2023-02-02T22:49:51.288Z,94849.19
2023-02-02T22:51:54.209Z,94829.34
2023-02-02T22:53:55.855Z,94832.13
2023-02-02T22:55:57.387Z,94835.59
2023-02-02T22:57:58.865Z,94843.53
2023-02-02T23:00:00.494Z,94841.13
2023-02-02T23:02:01.980Z,94836.19
2023-02-02T23:04:03.477Z,94828.41
2023-02-02T23:06:04.993Z,94827.47
2023-02-02T23:08:06.501Z,94840.53
2023-02-02T23:10:08.191Z,94837.31
2023-02-02T23:12:09.873Z,94840.41
2023-02-02T23:14:11.323Z,94844.34
2023-02-02T23:16:13.086Z,94848.09
2023-02-02T23:18:14.599Z,94838.78
2023-02-02T23:20:16.317Z,94842.56
2023-02-02T23:22:17.847Z,94834.59
2023-02-02T23:24:19.278Z,94826.19
2023-02-02T23:26:20.946Z,94831.22
2023-02-02T23:28:22.453Z,94832.53
2023-02-02T23:30:24.618Z,94825.38
2023-02-02T23:32:26.410Z,94836.34
2023-02-02T23:34:27.866Z,94840.91
2023-02-02T23:36:29.369Z,94846.91
2023-02-02T23:38:30.822Z,94834.69
2023-02-02T23:40:32.277Z,94836.22
2023-02-02T23:42:34.088Z,94842.72
2023-02-02T23:44:35.616Z,94840.53
2023-02-02T23:46:37.574Z,94843.41
2023-02-02T23:48:39.109Z,94846.69
2023-02-02T23:50:40.742Z,94859.34
2023-02-02T23:52:42.469Z,94840.09
2023-02-02T23:54:43.922Z,94844.03
2023-02-02T23:56:45.434Z,94848.59
2023-02-02T23:58:46.941Z,94850.34
